Mount Ida, Arkansas
Current Conditions -  °F | °C
As of 2:14 AM on Friday 24 Oct 2014 (Local Time) from KMWT Reporting Station
Haze Haze  
Wind Chill: 49°   Ceiling: Unl
Heat Index: 49°   Visibility: 3mi
Dew Point: 48°   Wind: 0mph
Humidity: 97%   Direction: NA
Pressure: 30.13"   Gusts: NA
Location:  34.56°N, 93.63°W
Report Text: KMWT 240714Z AUTO 00000KT 3SM BR CLR 09/09 A3013 RMK AO2 T00940089
Loading
Personal Weather Stations






























Interactive Weather Map
Tropical Storm Tracking
New forecast layout! Learn more

10-Day Weather Forecast

Advertisements
Track Severe Weather on mobile